気象予報士の航空気象 雷雨到来

*All archives   *Admin

2010.05.12 (Wed)

雷雨到来

RJAA 120730Z 12005KT 060V180 9999 FEW020CB 17/10 Q1002 TEMPO 3000 TSRA RMK 1CB020 A2961 CB 20KM N MOV SE

RJAA 120742Z 17003KT 100V220 9999 TS VCSH FEW020CB SCT040 17/10 Q1002 RMK 1CB020 3SC040 A2961 MOD TS 15KM NE MOV SE

RJAA 120800Z 09004KT 010V130 9999 TS VCSH FEW020 SCT030CB 17/10 Q1003 BECMG 36008KT TEMPO 3000 TSRA RMK 1CU020 3CB030 A2962 FBL TS 15KM N MOV SE CB OHD MOV SE


関東、ところどころ雷雨。


成田空港に雷雨到来。



 
ブログランキングに参加しています。
にほんブログ村 環境ブログ 天気・気象学へ
にほんブログ村
応援クリックをおねがします。


以下、アフィリエイトサイトです。



スポンサーサイト
23:47  |  気象・天気  |  TB(0)  |  CM(0)  |  EDIT  |  Top↑

コメントを投稿する


 管理者だけに表示  (非公開コメント投稿可能)

▲PageTop

この記事のトラックバックURL

→http://weathereucalyptus.blog115.fc2.com/tb.php/483-036e6475
この記事にトラックバックする(FC2ブログユーザー)

この記事へのトラックバック

▲PageTop

 | BLOGTOP |